createdAt,value
2022-12-03T00:03:08.445Z,102015.22
2022-12-03T00:08:55.298Z,102018.63
2022-12-03T00:14:44.896Z,102005.88
2022-12-03T00:20:31.913Z,102004.25
2022-12-03T00:26:20.098Z,101995.34
2022-12-03T00:32:09.087Z,101997.84
2022-12-03T00:37:56.190Z,102002.28
2022-12-03T00:43:43.202Z,101995.78
2022-12-03T00:49:32.005Z,101991.75
2022-12-03T00:55:18.977Z,101990.28
2022-12-03T01:01:09.002Z,101994.19
2022-12-03T01:06:55.954Z,101992.97
2022-12-03T01:12:42.807Z,101980.66
2022-12-03T01:18:29.814Z,101988.78
2022-12-03T01:24:17.234Z,101983.22
2022-12-03T01:30:05.290Z,101984.47
2022-12-03T01:35:52.084Z,101985.88
2022-12-03T01:41:39.482Z,101988.97
2022-12-03T01:47:32.526Z,101984.53
2022-12-03T01:53:23.007Z,101985.97
2022-12-03T01:59:14.874Z,101999.31
2022-12-03T02:05:06.055Z,101997.53
2022-12-03T02:10:52.975Z,101986.88
2022-12-03T02:16:42.309Z,101988.06
2022-12-03T02:23:12.103Z,101990.06
2022-12-03T02:28:58.836Z,101985.59
2022-12-03T02:34:46.496Z,101977.53
2022-12-03T02:40:33.989Z,101972.88
2022-12-03T02:46:20.896Z,101968.22
2022-12-03T02:52:07.950Z,101948.22
2022-12-03T02:57:55.100Z,101951.88
2022-12-03T03:03:42.087Z,101924.41
2022-12-03T03:09:29.137Z,101927.75
2022-12-03T03:15:16.329Z,101928.78
2022-12-03T03:21:04.676Z,101914.25
2022-12-03T03:26:51.675Z,101923.56
2022-12-03T03:32:40.616Z,101919.91
2022-12-03T03:38:29.329Z,101923.53
2022-12-03T03:44:16.156Z,101905.78
2022-12-03T03:50:03.710Z,101920.25
2022-12-03T03:55:51.294Z,101907.59
2022-12-03T04:01:38.535Z,101902.91
2022-12-03T04:07:29.921Z,101910.59
2022-12-03T04:13:16.678Z,101904.16
2022-12-03T04:19:03.435Z,101900.94
2022-12-03T04:24:50.286Z,101898.63
2022-12-03T04:30:37.464Z,101899.25
2022-12-03T04:36:24.198Z,101890.03
2022-12-03T04:42:11.131Z,101885.00
2022-12-03T04:47:58.453Z,101878.94
2022-12-03T04:53:47.209Z,101895.66
2022-12-03T04:59:37.428Z,101883.59
2022-12-03T05:05:24.936Z,101885.19
2022-12-03T05:11:14.140Z,101882.75
2022-12-03T05:17:08.535Z,101870.28
2022-12-03T05:23:16.442Z,101875.94
2022-12-03T05:29:04.225Z,101861.03
2022-12-03T05:34:51.503Z,101880.25
2022-12-03T05:40:38.761Z,101870.34
2022-12-03T05:46:25.755Z,101869.75
2022-12-03T05:52:13.142Z,101859.38
2022-12-03T05:57:59.804Z,101869.94
2022-12-03T06:03:46.729Z,101854.16
2022-12-03T06:09:33.688Z,101847.25
2022-12-03T06:15:20.979Z,101834.50
2022-12-03T06:21:07.673Z,101824.72
2022-12-03T06:26:54.406Z,101835.06
2022-12-03T06:32:41.368Z,101844.34
2022-12-03T06:38:28.064Z,101832.22
2022-12-03T06:44:15.212Z,101833.44
2022-12-03T06:50:01.978Z,101826.91
2022-12-03T06:55:48.747Z,101828.06
2022-12-03T07:01:35.567Z,101829.81
2022-12-03T07:07:22.330Z,101822.16
2022-12-03T07:13:09.318Z,101817.94
2022-12-03T07:18:56.158Z,101808.72
2022-12-03T07:24:43.097Z,101820.47
2022-12-03T07:30:30.282Z,101800.91
2022-12-03T07:36:17.006Z,101812.19
2022-12-03T07:42:03.884Z,101811.44
2022-12-03T07:47:51.006Z,101812.41
2022-12-03T07:53:37.859Z,101808.56
2022-12-03T07:59:24.797Z,101808.34
2022-12-03T08:05:12.158Z,101822.09
2022-12-03T08:11:00.489Z,101822.09
2022-12-03T08:16:53.701Z,101822.69
2022-12-03T08:22:42.080Z,101803.41
2022-12-03T08:28:29.012Z,101802.53
2022-12-03T08:34:17.882Z,101800.16
2022-12-03T08:40:22.591Z,101793.50
2022-12-03T08:46:20.429Z,101792.69
2022-12-03T08:52:15.906Z,101779.88
2022-12-03T08:58:24.396Z,101782.41
2022-12-03T09:04:17.435Z,101781.47
2022-12-03T09:10:04.568Z,101782.88
2022-12-03T09:15:51.387Z,101775.84
2022-12-03T09:21:38.140Z,101778.66
2022-12-03T09:27:24.902Z,101767.00
2022-12-03T09:33:11.912Z,101769.09
2022-12-03T09:38:58.795Z,101772.44
2022-12-03T09:44:45.669Z,101769.50
2022-12-03T09:50:32.855Z,101766.53
2022-12-03T09:56:23.150Z,101759.84
2022-12-03T10:02:30.775Z,101755.84
2022-12-03T10:08:21.755Z,101749.91
2022-12-03T10:14:13.968Z,101749.78
2022-12-03T10:20:01.633Z,101744.91
2022-12-03T10:25:57.388Z,101740.38
2022-12-03T10:31:45.003Z,101726.41
2022-12-03T10:37:31.956Z,101716.78
2022-12-03T10:43:19.351Z,101710.44
2022-12-03T10:49:19.611Z,101690.94
2022-12-03T10:55:06.839Z,101686.91
2022-12-03T11:00:55.892Z,101680.50
2022-12-03T11:06:42.657Z,101661.00
2022-12-03T11:12:34.744Z,101659.19
2022-12-03T11:18:36.843Z,101661.88
2022-12-03T11:24:23.556Z,101635.88
2022-12-03T11:30:10.636Z,101636.91
2022-12-03T11:36:03.585Z,101642.19
2022-12-03T11:42:25.710Z,101624.63
2022-12-03T11:48:15.298Z,101610.75
2022-12-03T11:54:05.530Z,101610.22
2022-12-03T12:00:00.484Z,101610.13
2022-12-03T12:05:47.181Z,101597.59
2022-12-03T12:11:41.462Z,101593.56
2022-12-03T12:17:35.975Z,101598.28
2022-12-03T12:23:28.787Z,101582.47
2022-12-03T12:29:15.465Z,101577.31
2022-12-03T12:35:18.679Z,101569.31
2022-12-03T12:41:08.059Z,101572.41
2022-12-03T12:46:55.524Z,101560.28
2022-12-03T12:52:53.145Z,101560.38
2022-12-03T12:58:40.552Z,101555.59
2022-12-03T13:04:30.617Z,101546.88
2022-12-03T13:10:39.013Z,101548.59
2022-12-03T13:16:30.725Z,101518.78
2022-12-03T13:22:22.619Z,101512.22
2022-12-03T13:28:09.379Z,101509.25
2022-12-03T13:33:58.153Z,101495.25
2022-12-03T13:39:50.120Z,101476.97
2022-12-03T13:45:41.447Z,101479.59
2022-12-03T13:51:32.338Z,101465.69
2022-12-03T13:57:19.847Z,101466.22
2022-12-03T14:03:06.723Z,101453.03
2022-12-03T14:08:53.599Z,101464.94
2022-12-03T14:14:40.543Z,101459.13
2022-12-03T14:20:27.241Z,101450.75
2022-12-03T14:26:13.945Z,101460.19
2022-12-03T14:32:00.878Z,101443.22
2022-12-03T14:38:02.867Z,101449.88
2022-12-03T14:43:49.547Z,101450.75
2022-12-03T14:49:36.932Z,101455.00
2022-12-03T14:55:24.055Z,101441.53
2022-12-03T15:01:10.932Z,101458.81
2022-12-03T15:06:57.733Z,101437.63
2022-12-03T15:12:44.709Z,101431.81
2022-12-03T15:18:31.436Z,101454.44
2022-12-03T15:24:18.179Z,101440.94
2022-12-03T15:30:06.725Z,101438.53
2022-12-03T15:35:53.492Z,101445.88
2022-12-03T15:41:40.417Z,101429.28
2022-12-03T15:47:27.199Z,101452.41
2022-12-03T15:53:13.980Z,101457.22
2022-12-03T15:59:01.066Z,101449.19
2022-12-03T16:04:48.330Z,101449.44
2022-12-03T16:10:35.249Z,101450.47
2022-12-03T16:16:22.337Z,101441.88
2022-12-03T16:22:09.527Z,101449.53
2022-12-03T16:27:56.671Z,101449.22
2022-12-03T16:33:43.404Z,101445.09
2022-12-03T16:39:30.214Z,101428.00
2022-12-03T16:45:29.016Z,101453.44
2022-12-03T16:51:16.527Z,101455.63
2022-12-03T16:57:11.001Z,101451.00
2022-12-03T17:02:57.866Z,101436.63
2022-12-03T17:08:49.384Z,101448.06
2022-12-03T17:14:36.920Z,101442.09
2022-12-03T17:20:23.732Z,101435.72
2022-12-03T17:26:10.684Z,101443.84
2022-12-03T17:31:57.907Z,101435.72
2022-12-03T17:37:44.899Z,101433.88
2022-12-03T17:43:32.118Z,101437.53
2022-12-03T17:49:19.104Z,101444.41
2022-12-03T17:55:12.141Z,101429.06
2022-12-03T18:01:03.121Z,101420.34
2022-12-03T18:06:50.602Z,101429.41
2022-12-03T18:12:37.590Z,101421.59
2022-12-03T18:18:24.505Z,101423.88
2022-12-03T18:24:11.297Z,101430.66
2022-12-03T18:29:58.210Z,101416.94
2022-12-03T18:35:45.269Z,101424.00
2022-12-03T18:41:33.484Z,101400.91
2022-12-03T18:47:31.983Z,101411.63
2022-12-03T18:53:19.739Z,101402.75
2022-12-03T18:59:07.709Z,101389.78
2022-12-03T19:04:54.847Z,101381.56
2022-12-03T19:10:45.511Z,101393.22
2022-12-03T19:16:32.708Z,101386.38
2022-12-03T19:22:19.629Z,101381.91
2022-12-03T19:28:07.240Z,101379.94
2022-12-03T19:33:54.486Z,101375.91
2022-12-03T19:39:42.256Z,101380.63
2022-12-03T19:45:29.018Z,101373.66
2022-12-03T19:51:33.555Z,101370.44
2022-12-03T19:57:23.480Z,101362.34
2022-12-03T20:03:10.779Z,101361.97
2022-12-03T20:08:59.362Z,101351.66
2022-12-03T20:14:46.686Z,101375.66
2022-12-03T20:20:35.407Z,101366.31
2022-12-03T20:26:23.051Z,101352.59
2022-12-03T20:32:13.280Z,101353.16
2022-12-03T20:38:00.169Z,101353.25
2022-12-03T20:43:47.577Z,101359.91
2022-12-03T20:49:34.384Z,101360.34
2022-12-03T20:55:21.231Z,101362.50
2022-12-03T21:01:15.626Z,101372.03
2022-12-03T21:07:03.240Z,101359.84
2022-12-03T21:12:50.215Z,101357.66
2022-12-03T21:18:37.239Z,101364.16
2022-12-03T21:24:24.046Z,101355.47
2022-12-03T21:30:11.104Z,101362.94
2022-12-03T21:36:00.373Z,101358.13
2022-12-03T21:42:18.802Z,101347.50
2022-12-03T21:47:56.494Z,101338.81
2022-12-03T21:53:43.813Z,101332.78
2022-12-03T21:59:30.816Z,101325.97
2022-12-03T22:05:18.397Z,101337.72
2022-12-03T22:11:07.706Z,101325.84
2022-12-03T22:16:54.567Z,101330.63
2022-12-03T22:22:41.336Z,101337.44
2022-12-03T22:28:28.243Z,101334.03
2022-12-03T22:34:15.152Z,101327.13
2022-12-03T22:40:02.108Z,101335.25
2022-12-03T22:45:53.685Z,101314.13
2022-12-03T22:51:40.870Z,101325.03
2022-12-03T22:57:27.697Z,101308.44
2022-12-03T23:03:19.614Z,101312.81
2022-12-03T23:09:07.391Z,101307.75
2022-12-03T23:14:55.288Z,101314.94
2022-12-03T23:20:51.693Z,101303.97
2022-12-03T23:26:39.499Z,101301.81
2022-12-03T23:32:26.452Z,101304.72
2022-12-03T23:38:13.365Z,101297.59
2022-12-03T23:44:00.730Z,101286.00
2022-12-03T23:49:47.484Z,101279.34
2022-12-03T23:55:34.269Z,101265.97
